sensor_id;sensor_type;location;lat;lon;timestamp;temperature;humidity
758;DHT22;363;48.764;9.172;2022-10-16T00:00:53;17.20;99.90
758;DHT22;363;48.764;9.172;2022-10-16T00:03:19;17.00;99.90
758;DHT22;363;48.764;9.172;2022-10-16T00:05:45;17.20;99.90
758;DHT22;363;48.764;9.172;2022-10-16T00:08:11;17.00;99.90
758;DHT22;363;48.764;9.172;2022-10-16T00:10:37;17.10;99.90
758;DHT22;363;48.764;9.172;2022-10-16T00:13:04;17.10;99.90
758;DHT22;363;48.764;9.172;2022-10-16T00:15:30;16.90;99.90
758;DHT22;363;48.764;9.172;2022-10-16T00:17:56;16.70;99.90
758;DHT22;363;48.764;9.172;2022-10-16T00:20:21;16.80;99.90
758;DHT22;363;48.764;9.172;2022-10-16T00:22:47;17.00;99.90
758;DHT22;363;48.764;9.172;2022-10-16T00:25:12;16.60;99.90
758;DHT22;363;48.764;9.172;2022-10-16T00:27:38;16.50;99.90
758;DHT22;363;48.764;9.172;2022-10-16T00:30:04;16.70;99.90
758;DHT22;363;48.764;9.172;2022-10-16T00:32:30;16.70;99.90
758;DHT22;363;48.764;9.172;2022-10-16T00:34:56;16.70;99.90
758;DHT22;363;48.764;9.172;2022-10-16T00:37:21;16.70;99.90
758;DHT22;363;48.764;9.172;2022-10-16T00:39:47;17.00;99.90
758;DHT22;363;48.764;9.172;2022-10-16T00:42:17;16.70;99.90
758;DHT22;363;48.764;9.172;2022-10-16T00:47:18;16.80;99.90
758;DHT22;363;48.764;9.172;2022-10-16T00:49:46;16.50;99.90
758;DHT22;363;48.764;9.172;2022-10-16T00:52:13;16.60;99.90
758;DHT22;363;48.764;9.172;2022-10-16T00:54:39;16.60;99.90
758;DHT22;363;48.764;9.172;2022-10-16T00:57:06;16.60;99.90
758;DHT22;363;48.764;9.172;2022-10-16T00:59:38;16.60;99.90
758;DHT22;363;48.764;9.172;2022-10-16T01:02:07;16.60;99.90
758;DHT22;363;48.764;9.172;2022-10-16T01:04:51;16.60;99.90
758;DHT22;363;48.764;9.172;2022-10-16T01:12:45;16.50;99.90
758;DHT22;363;48.764;9.172;2022-10-16T01:15:19;16.40;99.90
758;DHT22;363;48.764;9.172;2022-10-16T01:17:53;16.60;99.90
758;DHT22;363;48.764;9.172;2022-10-16T01:28:24;16.70;99.90
758;DHT22;363;48.764;9.172;2022-10-16T01:30:57;16.80;99.90
758;DHT22;363;48.764;9.172;2022-10-16T01:33:28;16.60;99.90
758;DHT22;363;48.764;9.172;2022-10-16T01:35:59;16.40;99.90
758;DHT22;363;48.764;9.172;2022-10-16T01:38:33;16.60;99.90
758;DHT22;363;48.764;9.172;2022-10-16T01:41:02;16.40;99.90
758;DHT22;363;48.764;9.172;2022-10-16T01:43:42;16.70;99.90
758;DHT22;363;48.764;9.172;2022-10-16T01:46:10;16.50;99.90
758;DHT22;363;48.764;9.172;2022-10-16T01:48:36;16.70;99.90
758;DHT22;363;48.764;9.172;2022-10-16T01:51:06;16.70;99.90
758;DHT22;363;48.764;9.172;2022-10-16T01:53:33;16.60;99.90
758;DHT22;363;48.764;9.172;2022-10-16T01:56:00;16.80;99.90
758;DHT22;363;48.764;9.172;2022-10-16T01:58:28;16.70;99.90
758;DHT22;363;48.764;9.172;2022-10-16T02:00:56;16.70;99.90
758;DHT22;363;48.764;9.172;2022-10-16T02:03:22;16.90;99.90
758;DHT22;363;48.764;9.172;2022-10-16T02:05:56;16.90;99.90
758;DHT22;363;48.764;9.172;2022-10-16T02:08:24;16.70;99.90
758;DHT22;363;48.764;9.172;2022-10-16T02:10:51;16.80;99.90
758;DHT22;363;48.764;9.172;2022-10-16T02:13:26;17.00;99.90
758;DHT22;363;48.764;9.172;2022-10-16T02:15:53;16.70;99.90
758;DHT22;363;48.764;9.172;2022-10-16T02:18:18;16.50;99.90
758;DHT22;363;48.764;9.172;2022-10-16T02:21:06;16.90;99.90
758;DHT22;363;48.764;9.172;2022-10-16T02:26:51;16.70;99.90
758;DHT22;363;48.764;9.172;2022-10-16T02:29:17;16.70;99.90
758;DHT22;363;48.764;9.172;2022-10-16T02:31:46;16.70;99.90
758;DHT22;363;48.764;9.172;2022-10-16T02:34:15;16.90;99.90
758;DHT22;363;48.764;9.172;2022-10-16T02:36:42;16.80;99.90
758;DHT22;363;48.764;9.172;2022-10-16T02:39:09;16.80;99.90
758;DHT22;363;48.764;9.172;2022-10-16T02:41:36;16.90;99.90
758;DHT22;363;48.764;9.172;2022-10-16T02:44:01;16.70;99.90
758;DHT22;363;48.764;9.172;2022-10-16T02:46:27;16.70;99.90
758;DHT22;363;48.764;9.172;2022-10-16T02:48:53;16.70;99.90
758;DHT22;363;48.764;9.172;2022-10-16T02:51:18;16.50;99.90
758;DHT22;363;48.764;9.172;2022-10-16T02:53:44;16.70;99.90
758;DHT22;363;48.764;9.172;2022-10-16T02:56:09;16.80;99.90
758;DHT22;363;48.764;9.172;2022-10-16T02:58:35;16.80;99.90
758;DHT22;363;48.764;9.172;2022-10-16T03:01:01;16.60;99.90
758;DHT22;363;48.764;9.172;2022-10-16T03:03:27;16.70;99.90
758;DHT22;363;48.764;9.172;2022-10-16T03:05:52;16.50;99.90
758;DHT22;363;48.764;9.172;2022-10-16T03:08:18;16.80;99.90
758;DHT22;363;48.764;9.172;2022-10-16T03:10:49;16.70;99.90
758;DHT22;363;48.764;9.172;2022-10-16T03:13:14;16.60;99.90
758;DHT22;363;48.764;9.172;2022-10-16T03:15:40;16.60;99.90
758;DHT22;363;48.764;9.172;2022-10-16T03:18:05;16.60;99.90
758;DHT22;363;48.764;9.172;2022-10-16T03:20:31;16.50;99.90
758;DHT22;363;48.764;9.172;2022-10-16T03:22:57;16.90;99.90
758;DHT22;363;48.764;9.172;2022-10-16T03:25:22;16.60;99.90
758;DHT22;363;48.764;9.172;2022-10-16T03:27:48;16.70;99.90
758;DHT22;363;48.764;9.172;2022-10-16T03:30:13;16.70;99.90
758;DHT22;363;48.764;9.172;2022-10-16T03:32:39;16.80;99.90
758;DHT22;363;48.764;9.172;2022-10-16T03:35:05;16.80;99.90
758;DHT22;363;48.764;9.172;2022-10-16T03:37:31;16.70;99.90
758;DHT22;363;48.764;9.172;2022-10-16T03:39:56;16.90;99.90
758;DHT22;363;48.764;9.172;2022-10-16T03:42:22;16.60;99.90
758;DHT22;363;48.764;9.172;2022-10-16T03:44:47;16.80;99.90
758;DHT22;363;48.764;9.172;2022-10-16T03:47:13;16.60;99.90
758;DHT22;363;48.764;9.172;2022-10-16T03:49:39;16.70;99.90
758;DHT22;363;48.764;9.172;2022-10-16T03:52:04;16.70;99.90
758;DHT22;363;48.764;9.172;2022-10-16T03:54:30;16.70;99.90
758;DHT22;363;48.764;9.172;2022-10-16T03:56:55;16.70;99.90
758;DHT22;363;48.764;9.172;2022-10-16T03:59:21;16.50;99.90
758;DHT22;363;48.764;9.172;2022-10-16T04:01:46;16.60;99.90
758;DHT22;363;48.764;9.172;2022-10-16T04:04:12;16.50;99.90
758;DHT22;363;48.764;9.172;2022-10-16T04:06:37;16.40;99.90
758;DHT22;363;48.764;9.172;2022-10-16T04:09:03;16.40;99.90
758;DHT22;363;48.764;9.172;2022-10-16T04:11:29;16.60;99.90
758;DHT22;363;48.764;9.172;2022-10-16T04:13:54;16.60;99.90
758;DHT22;363;48.764;9.172;2022-10-16T04:16:20;16.50;99.90
758;DHT22;363;48.764;9.172;2022-10-16T04:18:45;16.20;99.90
758;DHT22;363;48.764;9.172;2022-10-16T04:21:11;16.40;99.90
758;DHT22;363;48.764;9.172;2022-10-16T04:23:37;16.30;99.90
758;DHT22;363;48.764;9.172;2022-10-16T04:26:02;16.30;99.90
758;DHT22;363;48.764;9.172;2022-10-16T04:28:28;16.20;99.90
758;DHT22;363;48.764;9.172;2022-10-16T04:30:54;16.40;99.90
758;DHT22;363;48.764;9.172;2022-10-16T04:33:19;16.50;99.90
758;DHT22;363;48.764;9.172;2022-10-16T04:35:45;16.30;99.90
758;DHT22;363;48.764;9.172;2022-10-16T04:38:10;16.30;99.90
758;DHT22;363;48.764;9.172;2022-10-16T04:40:36;16.40;99.90
758;DHT22;363;48.764;9.172;2022-10-16T04:43:03;16.40;99.90
758;DHT22;363;48.764;9.172;2022-10-16T04:45:29;16.30;99.90
758;DHT22;363;48.764;9.172;2022-10-16T04:47:58;16.50;99.90
758;DHT22;363;48.764;9.172;2022-10-16T04:50:24;16.60;99.90
758;DHT22;363;48.764;9.172;2022-10-16T04:52:50;16.50;99.90
758;DHT22;363;48.764;9.172;2022-10-16T04:55:16;16.40;99.90
758;DHT22;363;48.764;9.172;2022-10-16T04:57:41;16.40;99.90
758;DHT22;363;48.764;9.172;2022-10-16T05:00:08;16.30;99.90
758;DHT22;363;48.764;9.172;2022-10-16T05:02:33;16.40;99.90
758;DHT22;363;48.764;9.172;2022-10-16T05:04:59;16.40;99.90
758;DHT22;363;48.764;9.172;2022-10-16T05:07:25;16.60;99.90
758;DHT22;363;48.764;9.172;2022-10-16T05:09:50;16.30;99.90
758;DHT22;363;48.764;9.172;2022-10-16T05:12:16;16.40;99.90
758;DHT22;363;48.764;9.172;2022-10-16T05:14:42;16.30;99.90
758;DHT22;363;48.764;9.172;2022-10-16T05:17:08;16.50;99.90
758;DHT22;363;48.764;9.172;2022-10-16T05:19:33;16.60;99.90
758;DHT22;363;48.764;9.172;2022-10-16T05:21:59;16.40;99.90
758;DHT22;363;48.764;9.172;2022-10-16T05:24:24;16.50;99.90
758;DHT22;363;48.764;9.172;2022-10-16T05:26:50;16.40;99.90
758;DHT22;363;48.764;9.172;2022-10-16T05:29:16;16.70;99.90
758;DHT22;363;48.764;9.172;2022-10-16T05:31:42;16.40;99.90
758;DHT22;363;48.764;9.172;2022-10-16T05:34:07;16.50;99.90
758;DHT22;363;48.764;9.172;2022-10-16T05:36:33;16.70;99.90
758;DHT22;363;48.764;9.172;2022-10-16T05:38:59;16.40;99.90
758;DHT22;363;48.764;9.172;2022-10-16T05:41:24;16.50;99.90
758;DHT22;363;48.764;9.172;2022-10-16T05:43:51;16.50;99.90
758;DHT22;363;48.764;9.172;2022-10-16T05:46:17;16.20;99.90
758;DHT22;363;48.764;9.172;2022-10-16T05:48:43;16.40;99.90
758;DHT22;363;48.764;9.172;2022-10-16T05:51:13;16.30;99.90
758;DHT22;363;48.764;9.172;2022-10-16T05:53:39;16.30;99.90
758;DHT22;363;48.764;9.172;2022-10-16T05:56:06;16.20;99.90
758;DHT22;363;48.764;9.172;2022-10-16T05:58:34;16.50;99.90
758;DHT22;363;48.764;9.172;2022-10-16T06:01:06;16.30;99.90
758;DHT22;363;48.764;9.172;2022-10-16T06:03:33;16.30;99.90
758;DHT22;363;48.764;9.172;2022-10-16T06:05:59;16.70;99.90
758;DHT22;363;48.764;9.172;2022-10-16T06:08:24;16.50;99.90
758;DHT22;363;48.764;9.172;2022-10-16T06:11:03;16.40;99.90
758;DHT22;363;48.764;9.172;2022-10-16T06:13:29;16.40;99.90
758;DHT22;363;48.764;9.172;2022-10-16T06:15:57;16.30;99.90
758;DHT22;363;48.764;9.172;2022-10-16T06:18:24;16.50;99.90
758;DHT22;363;48.764;9.172;2022-10-16T06:20:50;16.50;99.90
758;DHT22;363;48.764;9.172;2022-10-16T06:23:15;16.70;99.90
758;DHT22;363;48.764;9.172;2022-10-16T06:25:41;16.50;99.90
758;DHT22;363;48.764;9.172;2022-10-16T06:28:06;16.60;99.90
758;DHT22;363;48.764;9.172;2022-10-16T06:30:32;17.00;99.90
758;DHT22;363;48.764;9.172;2022-10-16T06:32:57;16.70;99.90
758;DHT22;363;48.764;9.172;2022-10-16T06:35:23;16.60;99.90
758;DHT22;363;48.764;9.172;2022-10-16T06:37:49;16.70;99.90
758;DHT22;363;48.764;9.172;2022-10-16T06:40:15;16.80;99.90
758;DHT22;363;48.764;9.172;2022-10-16T06:42:41;17.10;99.90
758;DHT22;363;48.764;9.172;2022-10-16T06:45:07;17.20;99.90
758;DHT22;363;48.764;9.172;2022-10-16T06:47:33;16.80;99.90
758;DHT22;363;48.764;9.172;2022-10-16T06:49:58;17.10;99.90
758;DHT22;363;48.764;9.172;2022-10-16T06:52:24;17.20;99.90
758;DHT22;363;48.764;9.172;2022-10-16T06:54:49;17.00;99.90
758;DHT22;363;48.764;9.172;2022-10-16T06:57:15;17.00;99.90
758;DHT22;363;48.764;9.172;2022-10-16T06:59:41;17.30;99.90
758;DHT22;363;48.764;9.172;2022-10-16T07:02:08;17.10;99.90
758;DHT22;363;48.764;9.172;2022-10-16T07:04:35;17.20;99.90
758;DHT22;363;48.764;9.172;2022-10-16T07:07:00;17.30;99.90
758;DHT22;363;48.764;9.172;2022-10-16T07:09:26;17.30;99.90
758;DHT22;363;48.764;9.172;2022-10-16T07:11:52;17.40;99.90
758;DHT22;363;48.764;9.172;2022-10-16T07:14:19;17.60;99.90
758;DHT22;363;48.764;9.172;2022-10-16T07:16:46;17.50;99.90
758;DHT22;363;48.764;9.172;2022-10-16T07:19:12;17.50;99.90
758;DHT22;363;48.764;9.172;2022-10-16T07:21:39;17.60;99.90
758;DHT22;363;48.764;9.172;2022-10-16T07:24:10;17.90;99.90
758;DHT22;363;48.764;9.172;2022-10-16T07:26:37;17.90;99.90
758;DHT22;363;48.764;9.172;2022-10-16T07:29:05;17.90;99.90
758;DHT22;363;48.764;9.172;2022-10-16T07:31:31;17.90;99.90
758;DHT22;363;48.764;9.172;2022-10-16T07:33:58;17.80;99.90
758;DHT22;363;48.764;9.172;2022-10-16T07:36:23;18.00;99.90
758;DHT22;363;48.764;9.172;2022-10-16T07:38:49;18.00;99.90
758;DHT22;363;48.764;9.172;2022-10-16T07:41:17;17.90;99.90
758;DHT22;363;48.764;9.172;2022-10-16T07:43:48;17.90;99.90
758;DHT22;363;48.764;9.172;2022-10-16T07:46:14;18.10;99.90
758;DHT22;363;48.764;9.172;2022-10-16T07:48:40;18.30;99.90
758;DHT22;363;48.764;9.172;2022-10-16T07:51:07;18.00;99.90
758;DHT22;363;48.764;9.172;2022-10-16T07:53:33;18.20;99.90
758;DHT22;363;48.764;9.172;2022-10-16T07:56:04;18.10;99.90
758;DHT22;363;48.764;9.172;2022-10-16T07:58:30;18.30;99.90
758;DHT22;363;48.764;9.172;2022-10-16T08:00:56;18.30;99.90
758;DHT22;363;48.764;9.172;2022-10-16T08:03:23;18.30;99.90
758;DHT22;363;48.764;9.172;2022-10-16T08:05:49;18.30;99.90
758;DHT22;363;48.764;9.172;2022-10-16T08:08:15;18.30;99.90
758;DHT22;363;48.764;9.172;2022-10-16T08:10:41;18.30;99.90
758;DHT22;363;48.764;9.172;2022-10-16T08:13:08;18.40;99.90
758;DHT22;363;48.764;9.172;2022-10-16T08:15:33;18.50;99.90
758;DHT22;363;48.764;9.172;2022-10-16T08:18:01;18.60;99.90
758;DHT22;363;48.764;9.172;2022-10-16T08:20:28;18.70;99.90
758;DHT22;363;48.764;9.172;2022-10-16T08:22:54;19.00;99.90
758;DHT22;363;48.764;9.172;2022-10-16T08:25:21;19.20;99.90
758;DHT22;363;48.764;9.172;2022-10-16T08:27:47;19.50;99.90
758;DHT22;363;48.764;9.172;2022-10-16T08:30:14;19.70;99.90
758;DHT22;363;48.764;9.172;2022-10-16T08:32:40;20.10;99.90
758;DHT22;363;48.764;9.172;2022-10-16T08:35:08;20.20;99.90
758;DHT22;363;48.764;9.172;2022-10-16T08:37:35;20.30;99.90
758;DHT22;363;48.764;9.172;2022-10-16T08:40:00;20.40;99.90
758;DHT22;363;48.764;9.172;2022-10-16T08:42:39;20.40;99.90
758;DHT22;363;48.764;9.172;2022-10-16T08:48:11;20.40;99.90
758;DHT22;363;48.764;9.172;2022-10-16T08:50:40;20.40;99.90
758;DHT22;363;48.764;9.172;2022-10-16T08:53:07;20.40;99.90
758;DHT22;363;48.764;9.172;2022-10-16T08:55:48;20.40;99.90
758;DHT22;363;48.764;9.172;2022-10-16T08:58:17;20.20;99.90
758;DHT22;363;48.764;9.172;2022-10-16T09:00:47;20.50;99.90
758;DHT22;363;48.764;9.172;2022-10-16T09:09:22;20.20;99.90
758;DHT22;363;48.764;9.172;2022-10-16T09:22:46;21.00;99.90
758;DHT22;363;48.764;9.172;2022-10-16T09:25:15;21.10;99.90
758;DHT22;363;48.764;9.172;2022-10-16T09:27:43;21.30;99.90
758;DHT22;363;48.764;9.172;2022-10-16T09:30:18;21.50;99.90
758;DHT22;363;48.764;9.172;2022-10-16T09:32:46;21.50;99.90
758;DHT22;363;48.764;9.172;2022-10-16T09:35:19;21.50;99.90
758;DHT22;363;48.764;9.172;2022-10-16T09:37:48;21.60;99.90
758;DHT22;363;48.764;9.172;2022-10-16T09:40:31;21.70;99.90
758;DHT22;363;48.764;9.172;2022-10-16T09:48:47;21.80;99.90
758;DHT22;363;48.764;9.172;2022-10-16T09:51:26;21.80;99.90
758;DHT22;363;48.764;9.172;2022-10-16T09:53:58;22.00;99.90
758;DHT22;363;48.764;9.172;2022-10-16T09:58:54;22.60;99.90
758;DHT22;363;48.764;9.172;2022-10-16T10:01:21;22.70;99.30
758;DHT22;363;48.764;9.172;2022-10-16T10:03:47;22.90;99.20
758;DHT22;363;48.764;9.172;2022-10-16T10:06:24;22.90;98.70
758;DHT22;363;48.764;9.172;2022-10-16T10:11:56;23.00;98.30
758;DHT22;363;48.764;9.172;2022-10-16T10:17:27;23.20;97.80
758;DHT22;363;48.764;9.172;2022-10-16T10:20:13;23.40;97.10
758;DHT22;363;48.764;9.172;2022-10-16T10:22:45;23.50;96.10
758;DHT22;363;48.764;9.172;2022-10-16T10:30:25;23.90;95.50
758;DHT22;363;48.764;9.172;2022-10-16T10:35:43;23.80;95.70
758;DHT22;363;48.764;9.172;2022-10-16T10:46:46;24.40;94.70
758;DHT22;363;48.764;9.172;2022-10-16T11:06:24;27.40;86.30
758;DHT22;363;48.764;9.172;2022-10-16T11:09:11;27.30;86.60
758;DHT22;363;48.764;9.172;2022-10-16T11:11:42;27.50;86.80
758;DHT22;363;48.764;9.172;2022-10-16T11:16:53;27.20;87.70
758;DHT22;363;48.764;9.172;2022-10-16T11:19:47;26.70;89.40
758;DHT22;363;48.764;9.172;2022-10-16T11:22:22;26.30;90.30
758;DHT22;363;48.764;9.172;2022-10-16T11:25:23;26.20;90.80
758;DHT22;363;48.764;9.172;2022-10-16T11:30:23;25.80;91.00
758;DHT22;363;48.764;9.172;2022-10-16T11:35:51;25.40;91.00
758;DHT22;363;48.764;9.172;2022-10-16T11:38:43;25.20;90.80
758;DHT22;363;48.764;9.172;2022-10-16T11:44:12;25.10;90.50
758;DHT22;363;48.764;9.172;2022-10-16T11:46:40;25.10;90.00
758;DHT22;363;48.764;9.172;2022-10-16T11:49:21;25.10;90.60
758;DHT22;363;48.764;9.172;2022-10-16T11:51:57;25.10;90.50
758;DHT22;363;48.764;9.172;2022-10-16T11:54:38;25.00;90.20
758;DHT22;363;48.764;9.172;2022-10-16T11:57:13;25.00;89.50
758;DHT22;363;48.764;9.172;2022-10-16T11:59:48;25.00;91.20
758;DHT22;363;48.764;9.172;2022-10-16T12:02:48;25.00;91.90
758;DHT22;363;48.764;9.172;2022-10-16T12:05:47;25.20;92.10
758;DHT22;363;48.764;9.172;2022-10-16T12:08:16;25.10;91.70
758;DHT22;363;48.764;9.172;2022-10-16T12:10:45;25.10;91.80
758;DHT22;363;48.764;9.172;2022-10-16T12:13:34;25.20;90.20
758;DHT22;363;48.764;9.172;2022-10-16T12:18:41;24.80;90.90
758;DHT22;363;48.764;9.172;2022-10-16T12:21:07;24.60;91.00
758;DHT22;363;48.764;9.172;2022-10-16T12:23:38;24.60;91.20
758;DHT22;363;48.764;9.172;2022-10-16T12:26:05;24.90;91.50
758;DHT22;363;48.764;9.172;2022-10-16T12:28:32;25.00;91.30
758;DHT22;363;48.764;9.172;2022-10-16T12:31:07;25.10;91.20
758;DHT22;363;48.764;9.172;2022-10-16T12:33:40;25.30;90.40
758;DHT22;363;48.764;9.172;2022-10-16T12:36:26;25.40;90.60
758;DHT22;363;48.764;9.172;2022-10-16T12:38:53;25.40;90.50
758;DHT22;363;48.764;9.172;2022-10-16T12:41:34;25.20;90.10
758;DHT22;363;48.764;9.172;2022-10-16T12:44:01;25.20;90.80
758;DHT22;363;48.764;9.172;2022-10-16T12:51:56;25.20;91.40
758;DHT22;363;48.764;9.172;2022-10-16T12:54:48;25.20;90.80
758;DHT22;363;48.764;9.172;2022-10-16T12:57:34;25.10;92.00
758;DHT22;363;48.764;9.172;2022-10-16T13:00:32;25.10;91.80
758;DHT22;363;48.764;9.172;2022-10-16T13:22:45;24.20;92.80
758;DHT22;363;48.764;9.172;2022-10-16T13:28:01;24.70;92.70
758;DHT22;363;48.764;9.172;2022-10-16T13:30:29;24.40;92.60
758;DHT22;363;48.764;9.172;2022-10-16T13:35:30;24.40;92.90
758;DHT22;363;48.764;9.172;2022-10-16T13:40:52;24.40;92.50
758;DHT22;363;48.764;9.172;2022-10-16T13:43:24;24.40;92.30
758;DHT22;363;48.764;9.172;2022-10-16T13:46:05;24.50;93.50
758;DHT22;363;48.764;9.172;2022-10-16T13:48:33;24.50;92.90
758;DHT22;363;48.764;9.172;2022-10-16T13:51:04;24.60;92.60
758;DHT22;363;48.764;9.172;2022-10-16T13:53:32;24.70;92.60
758;DHT22;363;48.764;9.172;2022-10-16T13:55:58;24.70;93.50
758;DHT22;363;48.764;9.172;2022-10-16T13:58:25;24.60;93.70
758;DHT22;363;48.764;9.172;2022-10-16T14:00:59;24.60;92.80
758;DHT22;363;48.764;9.172;2022-10-16T14:03:25;24.50;93.50
758;DHT22;363;48.764;9.172;2022-10-16T14:06:03;24.50;94.00
758;DHT22;363;48.764;9.172;2022-10-16T14:08:30;24.40;94.20
758;DHT22;363;48.764;9.172;2022-10-16T14:10:58;24.30;94.30
758;DHT22;363;48.764;9.172;2022-10-16T14:13:36;24.20;94.10
758;DHT22;363;48.764;9.172;2022-10-16T14:16:07;24.20;92.80
758;DHT22;363;48.764;9.172;2022-10-16T14:18:34;24.10;92.30
758;DHT22;363;48.764;9.172;2022-10-16T14:21:13;24.10;92.40
758;DHT22;363;48.764;9.172;2022-10-16T14:23:41;24.20;93.50
758;DHT22;363;48.764;9.172;2022-10-16T14:28:37;24.20;92.40
758;DHT22;363;48.764;9.172;2022-10-16T14:31:32;24.20;94.10
758;DHT22;363;48.764;9.172;2022-10-16T14:33:59;24.20;94.60
758;DHT22;363;48.764;9.172;2022-10-16T14:36:26;24.20;95.20
758;DHT22;363;48.764;9.172;2022-10-16T14:41:24;24.20;95.10
758;DHT22;363;48.764;9.172;2022-10-16T14:43:52;24.30;94.70
758;DHT22;363;48.764;9.172;2022-10-16T14:46:21;24.30;96.40
758;DHT22;363;48.764;9.172;2022-10-16T14:48:53;24.20;97.40
758;DHT22;363;48.764;9.172;2022-10-16T14:51:22;24.20;97.60
758;DHT22;363;48.764;9.172;2022-10-16T14:53:49;24.10;97.80
758;DHT22;363;48.764;9.172;2022-10-16T14:56:26;24.20;98.10
758;DHT22;363;48.764;9.172;2022-10-16T14:58:53;24.20;97.00
758;DHT22;363;48.764;9.172;2022-10-16T15:01:19;24.00;99.10
758;DHT22;363;48.764;9.172;2022-10-16T15:03:45;23.90;99.60
758;DHT22;363;48.764;9.172;2022-10-16T15:06:12;23.80;99.60
758;DHT22;363;48.764;9.172;2022-10-16T15:08:38;23.80;99.90
758;DHT22;363;48.764;9.172;2022-10-16T15:11:04;23.80;99.90
758;DHT22;363;48.764;9.172;2022-10-16T15:13:30;23.70;99.90
758;DHT22;363;48.764;9.172;2022-10-16T15:15:55;23.60;99.20
758;DHT22;363;48.764;9.172;2022-10-16T15:18:21;23.50;99.90
758;DHT22;363;48.764;9.172;2022-10-16T15:20:49;23.50;99.90
758;DHT22;363;48.764;9.172;2022-10-16T15:23:20;23.50;99.90
758;DHT22;363;48.764;9.172;2022-10-16T15:25:52;23.50;99.90
758;DHT22;363;48.764;9.172;2022-10-16T15:28:18;23.40;99.90
758;DHT22;363;48.764;9.172;2022-10-16T15:30:45;23.30;99.90
758;DHT22;363;48.764;9.172;2022-10-16T15:33:15;23.30;99.90
758;DHT22;363;48.764;9.172;2022-10-16T15:35:41;23.20;99.90
758;DHT22;363;48.764;9.172;2022-10-16T15:38:11;23.00;99.90
758;DHT22;363;48.764;9.172;2022-10-16T15:40:37;22.90;99.90
758;DHT22;363;48.764;9.172;2022-10-16T15:43:03;22.90;99.90
758;DHT22;363;48.764;9.172;2022-10-16T15:45:28;22.80;99.90
758;DHT22;363;48.764;9.172;2022-10-16T15:47:54;22.60;99.90
758;DHT22;363;48.764;9.172;2022-10-16T15:50:19;22.60;99.90
758;DHT22;363;48.764;9.172;2022-10-16T15:52:45;22.50;99.90
758;DHT22;363;48.764;9.172;2022-10-16T15:55:13;22.40;99.90
758;DHT22;363;48.764;9.172;2022-10-16T15:57:39;22.40;99.90
758;DHT22;363;48.764;9.172;2022-10-16T16:00:10;22.30;99.90
758;DHT22;363;48.764;9.172;2022-10-16T16:02:36;22.30;99.90
758;DHT22;363;48.764;9.172;2022-10-16T16:05:01;22.30;99.90
758;DHT22;363;48.764;9.172;2022-10-16T16:07:27;22.20;99.90
758;DHT22;363;48.764;9.172;2022-10-16T16:09:53;22.10;99.90
758;DHT22;363;48.764;9.172;2022-10-16T16:12:19;22.60;99.90
758;DHT22;363;48.764;9.172;2022-10-16T16:14:44;21.90;99.90
758;DHT22;363;48.764;9.172;2022-10-16T16:17:11;21.80;99.90
758;DHT22;363;48.764;9.172;2022-10-16T16:19:37;21.70;99.90
758;DHT22;363;48.764;9.172;2022-10-16T16:22:02;21.60;99.90
758;DHT22;363;48.764;9.172;2022-10-16T16:24:28;21.50;99.90
758;DHT22;363;48.764;9.172;2022-10-16T16:26:54;21.30;99.90
758;DHT22;363;48.764;9.172;2022-10-16T16:29:19;21.20;99.90
758;DHT22;363;48.764;9.172;2022-10-16T16:31:45;21.10;99.90
758;DHT22;363;48.764;9.172;2022-10-16T16:34:12;20.90;99.90
758;DHT22;363;48.764;9.172;2022-10-16T16:36:38;20.80;99.90
758;DHT22;363;48.764;9.172;2022-10-16T16:39:06;20.70;99.90
758;DHT22;363;48.764;9.172;2022-10-16T16:41:32;20.60;99.90
758;DHT22;363;48.764;9.172;2022-10-16T16:44:05;20.50;99.90
758;DHT22;363;48.764;9.172;2022-10-16T16:46:33;20.70;99.90
758;DHT22;363;48.764;9.172;2022-10-16T16:48:59;20.40;99.90
758;DHT22;363;48.764;9.172;2022-10-16T16:51:25;20.20;99.90
758;DHT22;363;48.764;9.172;2022-10-16T16:53:52;20.10;99.90
758;DHT22;363;48.764;9.172;2022-10-16T16:56:19;20.00;99.90
758;DHT22;363;48.764;9.172;2022-10-16T16:58:49;20.00;99.90
758;DHT22;363;48.764;9.172;2022-10-16T17:01:15;20.00;99.90
758;DHT22;363;48.764;9.172;2022-10-16T17:03:43;19.90;99.90
758;DHT22;363;48.764;9.172;2022-10-16T17:06:13;19.90;99.90
758;DHT22;363;48.764;9.172;2022-10-16T17:08:42;19.80;99.90
758;DHT22;363;48.764;9.172;2022-10-16T17:11:16;19.80;99.90
758;DHT22;363;48.764;9.172;2022-10-16T17:13:42;19.80;99.90
758;DHT22;363;48.764;9.172;2022-10-16T17:16:09;19.70;99.90
758;DHT22;363;48.764;9.172;2022-10-16T17:18:34;19.50;99.90
758;DHT22;363;48.764;9.172;2022-10-16T17:21:02;19.60;99.90
758;DHT22;363;48.764;9.172;2022-10-16T17:23:29;19.50;99.90
758;DHT22;363;48.764;9.172;2022-10-16T17:25:55;19.50;99.90
758;DHT22;363;48.764;9.172;2022-10-16T17:28:20;19.50;99.90
758;DHT22;363;48.764;9.172;2022-10-16T17:30:46;19.20;99.90
758;DHT22;363;48.764;9.172;2022-10-16T17:33:12;19.20;99.90
758;DHT22;363;48.764;9.172;2022-10-16T17:35:45;19.10;99.90
758;DHT22;363;48.764;9.172;2022-10-16T17:38:13;19.00;99.90
758;DHT22;363;48.764;9.172;2022-10-16T17:40:39;18.90;99.90
758;DHT22;363;48.764;9.172;2022-10-16T17:43:06;18.80;99.90
758;DHT22;363;48.764;9.172;2022-10-16T17:45:31;18.80;99.90
758;DHT22;363;48.764;9.172;2022-10-16T17:48:00;18.70;99.90
758;DHT22;363;48.764;9.172;2022-10-16T17:50:26;18.80;99.90
758;DHT22;363;48.764;9.172;2022-10-16T17:52:52;18.80;99.90
758;DHT22;363;48.764;9.172;2022-10-16T17:55:17;18.80;99.90
758;DHT22;363;48.764;9.172;2022-10-16T17:57:44;18.70;99.90
758;DHT22;363;48.764;9.172;2022-10-16T18:00:10;18.90;99.90
758;DHT22;363;48.764;9.172;2022-10-16T18:02:35;18.60;99.90
758;DHT22;363;48.764;9.172;2022-10-16T18:05:01;18.40;99.90
758;DHT22;363;48.764;9.172;2022-10-16T18:07:30;18.40;99.90
758;DHT22;363;48.764;9.172;2022-10-16T18:09:56;18.40;99.90
758;DHT22;363;48.764;9.172;2022-10-16T18:12:21;18.40;99.90
758;DHT22;363;48.764;9.172;2022-10-16T18:14:47;18.30;99.90
758;DHT22;363;48.764;9.172;2022-10-16T18:17:13;18.30;99.90
758;DHT22;363;48.764;9.172;2022-10-16T18:19:40;18.20;99.90
758;DHT22;363;48.764;9.172;2022-10-16T18:22:06;18.20;99.90
758;DHT22;363;48.764;9.172;2022-10-16T18:24:32;18.20;99.90
758;DHT22;363;48.764;9.172;2022-10-16T18:26:57;18.20;99.90
758;DHT22;363;48.764;9.172;2022-10-16T18:29:25;17.90;99.90
758;DHT22;363;48.764;9.172;2022-10-16T18:31:51;18.00;99.90
758;DHT22;363;48.764;9.172;2022-10-16T18:34:17;17.70;99.90
758;DHT22;363;48.764;9.172;2022-10-16T18:36:44;17.80;99.90
758;DHT22;363;48.764;9.172;2022-10-16T18:39:11;17.80;99.90
758;DHT22;363;48.764;9.172;2022-10-16T18:41:39;17.60;99.90
758;DHT22;363;48.764;9.172;2022-10-16T18:44:05;17.50;99.90
758;DHT22;363;48.764;9.172;2022-10-16T18:46:32;17.50;99.90
758;DHT22;363;48.764;9.172;2022-10-16T18:48:58;17.50;99.90
758;DHT22;363;48.764;9.172;2022-10-16T18:51:28;17.30;99.90
758;DHT22;363;48.764;9.172;2022-10-16T18:53:56;17.50;99.90
758;DHT22;363;48.764;9.172;2022-10-16T18:56:23;17.30;99.90
758;DHT22;363;48.764;9.172;2022-10-16T18:58:50;17.40;99.90
758;DHT22;363;48.764;9.172;2022-10-16T19:01:19;17.30;99.90